createdAt,value
2023-05-04T00:00:30.839Z,68.91
2023-05-04T00:01:30.895Z,69.02
2023-05-04T00:02:30.845Z,69.02
2023-05-04T00:03:30.978Z,69.12
2023-05-04T00:04:30.855Z,69.23
2023-05-04T00:05:30.844Z,69.56
2023-05-04T00:06:30.781Z,69.67
2023-05-04T00:07:30.794Z,69.56
2023-05-04T00:08:30.764Z,69.56
2023-05-04T00:09:30.767Z,69.77
2023-05-04T00:10:30.778Z,69.98
2023-05-04T00:11:30.749Z,70.08
2023-05-04T00:12:30.811Z,69.98
2023-05-04T00:13:30.760Z,69.77
2023-05-04T00:14:30.707Z,69.77
2023-05-04T00:15:30.736Z,69.77
2023-05-04T00:16:30.741Z,69.77
2023-05-04T00:17:30.699Z,69.56
2023-05-04T00:18:30.657Z,69.67
2023-05-04T00:19:30.691Z,69.67
2023-05-04T00:20:30.634Z,69.56
2023-05-04T00:21:30.643Z,69.67
2023-05-04T00:22:30.646Z,69.67
2023-05-04T00:23:30.636Z,69.67
2023-05-04T00:24:30.589Z,69.67
2023-05-04T00:25:30.610Z,69.80
2023-05-04T00:26:30.625Z,69.90
2023-05-04T00:27:30.588Z,69.90
2023-05-04T00:28:30.580Z,70.01
2023-05-04T00:29:30.565Z,70.21
2023-05-04T00:30:30.559Z,70.32
2023-05-04T00:31:30.609Z,70.42
2023-05-04T00:32:30.532Z,70.42
2023-05-04T00:33:30.520Z,70.52
2023-05-04T00:34:30.491Z,70.52
2023-05-04T00:35:30.534Z,70.62
2023-05-04T00:36:30.460Z,70.62
2023-05-04T00:37:30.501Z,70.52
2023-05-04T00:38:30.450Z,70.42
2023-05-04T00:39:30.452Z,70.52
2023-05-04T00:40:30.450Z,70.42
2023-05-04T00:41:30.466Z,70.32
2023-05-04T00:42:30.394Z,70.32
2023-05-04T00:43:30.417Z,70.42
2023-05-04T00:44:30.387Z,70.42
2023-05-04T00:45:30.402Z,70.32
2023-05-04T00:46:30.456Z,70.32
2023-05-04T00:47:30.424Z,70.32
2023-05-04T00:48:30.338Z,70.32
2023-05-04T00:49:30.360Z,70.35
2023-05-04T00:50:30.314Z,70.35
2023-05-04T00:51:30.359Z,70.35
2023-05-04T00:52:30.298Z,70.25
2023-05-04T00:53:30.338Z,70.25
2023-05-04T00:54:30.288Z,70.25
2023-05-04T00:55:30.300Z,70.14
2023-05-04T00:56:30.300Z,70.04
2023-05-04T00:57:30.266Z,70.04
2023-05-04T00:58:30.238Z,69.94
2023-05-04T00:59:30.250Z,69.84
2023-05-04T01:00:30.226Z,69.84
2023-05-04T01:01:30.414Z,69.84
2023-05-04T01:02:30.309Z,69.84
2023-05-04T01:03:30.312Z,69.84
2023-05-04T01:04:30.178Z,69.84
2023-05-04T01:05:30.172Z,69.94
2023-05-04T01:06:30.203Z,70.04
2023-05-04T01:07:30.160Z,69.94
2023-05-04T01:08:30.177Z,69.94
2023-05-04T01:09:30.140Z,69.84
2023-05-04T01:10:30.112Z,69.84
2023-05-04T01:11:30.118Z,69.63
2023-05-04T01:12:30.179Z,69.84
2023-05-04T01:13:30.142Z,69.63
2023-05-04T01:14:30.067Z,69.63
2023-05-04T01:15:30.092Z,69.63
2023-05-04T01:16:35.330Z,69.84
2023-05-04T01:17:30.129Z,69.53
2023-05-04T01:18:30.058Z,69.29
2023-05-04T01:19:30.057Z,69.29
2023-05-04T01:20:30.009Z,69.49
2023-05-04T01:21:30.018Z,69.70
2023-05-04T01:22:29.975Z,69.63
2023-05-04T01:23:29.983Z,69.84
2023-05-04T01:24:29.970Z,69.84
2023-05-04T01:25:29.971Z,69.94
2023-05-04T01:26:30.896Z,70.14
2023-05-04T01:27:29.949Z,70.07
2023-05-04T01:28:29.930Z,70.18
2023-05-04T01:29:29.952Z,70.14
2023-05-04T01:30:29.920Z,70.35
2023-05-04T01:31:29.998Z,70.25
2023-05-04T01:32:29.932Z,70.14
2023-05-04T01:33:29.909Z,69.94
2023-05-04T01:34:29.853Z,69.84
2023-05-04T01:35:29.861Z,70.14
2023-05-04T01:36:29.831Z,70.25
2023-05-04T01:37:29.844Z,70.48
2023-05-04T01:38:29.850Z,70.66
2023-05-04T01:39:29.859Z,70.76
2023-05-04T01:40:29.791Z,71.00
2023-05-04T01:41:29.796Z,70.69
2023-05-04T01:42:29.769Z,70.79
2023-05-04T01:43:29.778Z,71.20
2023-05-04T01:44:29.789Z,71.20
2023-05-04T01:45:29.757Z,71.00
2023-05-04T01:46:29.774Z,71.20
2023-05-04T01:47:29.807Z,71.31
2023-05-04T01:48:29.719Z,71.20
2023-05-04T01:49:29.731Z,71.10
2023-05-04T01:50:29.680Z,71.10
2023-05-04T01:51:29.697Z,71.24
2023-05-04T01:52:29.676Z,71.75
2023-05-04T01:53:29.660Z,72.06
2023-05-04T01:54:29.635Z,72.16
2023-05-04T01:55:29.674Z,72.16
2023-05-04T01:56:29.622Z,72.16
2023-05-04T01:57:29.661Z,72.06
2023-05-04T01:58:29.588Z,72.06
2023-05-04T01:59:29.597Z,72.37
2023-05-04T02:00:29.606Z,72.37
2023-05-04T02:01:29.631Z,72.06
2023-05-04T02:02:29.587Z,72.06
2023-05-04T02:03:29.651Z,71.99
2023-05-04T02:04:29.526Z,72.20
2023-05-04T02:05:29.542Z,72.30
2023-05-04T02:06:29.528Z,72.09
2023-05-04T02:07:29.521Z,71.89
2023-05-04T02:08:29.533Z,71.65
2023-05-04T02:09:29.521Z,71.55
2023-05-04T02:10:29.462Z,71.75
2023-05-04T02:11:29.475Z,71.34
2023-05-04T02:12:29.474Z,71.24
2023-05-04T02:13:29.456Z,71.48
2023-05-04T02:14:29.455Z,71.69
2023-05-04T02:15:29.431Z,71.99
2023-05-04T02:16:29.461Z,71.99
2023-05-04T02:17:29.414Z,72.09
2023-05-04T02:18:29.402Z,71.99
2023-05-04T02:19:29.416Z,72.20
2023-05-04T02:20:29.406Z,72.44
2023-05-04T02:21:29.395Z,72.54
2023-05-04T02:22:29.336Z,72.64
2023-05-04T02:23:29.355Z,72.64
2023-05-04T02:24:29.320Z,72.88
2023-05-04T02:25:29.377Z,73.40
2023-05-04T02:26:29.323Z,73.60
2023-05-04T02:27:29.312Z,74.26
2023-05-04T02:28:29.281Z,74.46
2023-05-04T02:29:29.290Z,74.57
2023-05-04T02:30:29.250Z,74.77
2023-05-04T02:31:29.344Z,74.77
2023-05-04T02:32:29.260Z,74.67
2023-05-04T02:33:29.228Z,74.57
2023-05-04T02:34:29.242Z,74.36
2023-05-04T02:35:29.201Z,74.22
2023-05-04T02:36:29.248Z,74.22
2023-05-04T02:37:29.182Z,74.43
2023-05-04T02:38:29.241Z,74.22
2023-05-04T02:39:29.168Z,74.33
2023-05-04T02:40:29.175Z,74.12
2023-05-04T02:41:29.144Z,73.91
2023-05-04T02:42:29.177Z,73.81
2023-05-04T02:43:29.145Z,74.15
2023-05-04T02:44:29.152Z,74.26
2023-05-04T02:45:29.161Z,74.57
2023-05-04T02:46:29.119Z,74.88
2023-05-04T02:47:29.194Z,75.01
2023-05-04T02:48:29.111Z,75.12
2023-05-04T02:49:29.064Z,75.32
2023-05-04T02:50:29.094Z,75.43
2023-05-04T02:51:29.053Z,75.74
2023-05-04T02:52:29.054Z,75.74
2023-05-04T02:53:29.031Z,75.74
2023-05-04T02:54:29.064Z,75.84
2023-05-04T02:55:35.804Z,75.84
2023-05-04T02:56:29.029Z,75.95
2023-05-04T02:57:28.966Z,75.84
2023-05-04T02:58:29.017Z,75.49
2023-05-04T02:59:28.972Z,74.98
2023-05-04T03:00:50.071Z,74.88
2023-05-04T03:01:28.973Z,75.12
2023-05-04T03:02:28.959Z,75.12
2023-05-04T03:03:28.933Z,75.12
2023-05-04T03:04:28.972Z,75.43
2023-05-04T03:05:28.949Z,75.63
2023-05-04T03:06:28.879Z,75.84
2023-05-04T03:07:28.914Z,75.95
2023-05-04T03:08:28.864Z,76.08
2023-05-04T03:09:35.842Z,76.08
2023-05-04T03:10:28.839Z,76.18
2023-05-04T03:11:28.851Z,76.39
2023-05-04T03:12:28.861Z,76.50
2023-05-04T03:13:28.840Z,76.50
2023-05-04T03:14:28.793Z,76.39
2023-05-04T03:15:28.805Z,76.29
2023-05-04T03:16:28.806Z,76.39
2023-05-04T03:17:28.816Z,76.60
2023-05-04T03:18:59.429Z,76.70
2023-05-04T03:19:28.762Z,77.04
2023-05-04T03:20:28.716Z,77.36
2023-05-04T03:21:28.728Z,77.46
2023-05-04T03:22:28.707Z,77.77
2023-05-04T03:23:28.733Z,77.87
2023-05-04T03:24:28.733Z,77.87
2023-05-04T03:25:28.689Z,77.98
2023-05-04T03:26:28.646Z,77.77
2023-05-04T03:27:28.681Z,77.46
2023-05-04T03:28:28.634Z,77.46
2023-05-04T03:29:28.640Z,77.56
2023-05-04T03:30:28.635Z,77.56
2023-05-04T03:31:28.653Z,77.91
2023-05-04T03:32:28.604Z,78.42
2023-05-04T03:33:28.568Z,78.42
2023-05-04T03:34:28.550Z,78.42
2023-05-04T03:35:28.568Z,78.53
2023-05-04T03:36:28.515Z,78.63
2023-05-04T03:37:28.545Z,78.63
2023-05-04T03:38:28.506Z,78.63
2023-05-04T03:39:28.824Z,78.63
2023-05-04T03:40:28.603Z,78.63
2023-05-04T03:41:28.481Z,78.74
2023-05-04T03:42:28.479Z,78.84
2023-05-04T03:43:28.471Z,78.63
2023-05-04T03:44:28.435Z,78.42
2023-05-04T03:45:28.506Z,78.32
2023-05-04T03:46:28.442Z,78.32
2023-05-04T03:47:28.476Z,78.28
2023-05-04T03:48:28.425Z,78.18
2023-05-04T03:49:28.403Z,77.87
2023-05-04T03:50:28.374Z,77.56
2023-05-04T03:51:28.408Z,77.36
2023-05-04T03:52:28.387Z,77.67
2023-05-04T03:53:28.380Z,77.67
2023-05-04T03:54:28.331Z,77.98
2023-05-04T03:55:28.357Z,77.87
2023-05-04T03:56:28.313Z,77.98
2023-05-04T03:57:28.317Z,77.87
2023-05-04T03:58:28.320Z,77.77
2023-05-04T03:59:28.300Z,77.67
2023-05-04T04:00:28.257Z,77.46
2023-05-04T04:01:28.274Z,76.90
2023-05-04T04:02:28.382Z,76.70
2023-05-04T04:03:28.479Z,76.50
2023-05-04T04:04:28.353Z,76.50
2023-05-04T04:05:28.226Z,76.08
2023-05-04T04:06:28.198Z,75.87
2023-05-04T04:07:28.218Z,75.74
2023-05-04T04:08:28.179Z,75.74
2023-05-04T04:09:28.233Z,75.63
2023-05-04T04:10:28.160Z,75.53
2023-05-04T04:11:28.176Z,75.53
2023-05-04T04:12:28.157Z,75.43
2023-05-04T04:13:28.162Z,75.43
2023-05-04T04:14:28.128Z,75.53
2023-05-04T04:15:28.174Z,75.32
2023-05-04T04:16:28.141Z,75.22
2023-05-04T04:17:28.176Z,75.32
2023-05-04T04:18:28.076Z,75.32
2023-05-04T04:19:28.093Z,75.22
2023-05-04T04:20:28.095Z,75.12
2023-05-04T04:21:28.099Z,75.12
2023-05-04T04:22:28.030Z,75.12
2023-05-04T04:23:28.079Z,75.12
2023-05-04T04:24:28.044Z,75.12
2023-05-04T04:25:28.026Z,75.18
2023-05-04T04:26:27.991Z,75.09
2023-05-04T04:27:28.010Z,74.88
2023-05-04T04:28:28.019Z,74.46
2023-05-04T04:29:28.001Z,74.26
2023-05-04T04:30:27.956Z,73.85
2023-05-04T04:31:28.048Z,73.60
2023-05-04T04:32:27.982Z,73.64
2023-05-04T04:33:27.978Z,73.54
2023-05-04T04:34:27.923Z,73.54
2023-05-04T04:35:27.929Z,73.85
2023-05-04T04:36:27.908Z,74.15
2023-05-04T04:37:27.911Z,74.26
2023-05-04T04:38:27.889Z,74.36
2023-05-04T04:39:27.993Z,74.26
2023-05-04T04:40:27.855Z,74.15
2023-05-04T04:41:27.864Z,74.26
2023-05-04T04:42:30.322Z,74.26
2023-05-04T04:43:27.848Z,74.60
2023-05-04T04:44:27.910Z,75.01
2023-05-04T04:45:27.866Z,75.32
2023-05-04T04:46:35.488Z,75.67
2023-05-04T04:47:27.838Z,75.98
2023-05-04T04:48:28.898Z,76.39
2023-05-04T04:49:27.784Z,76.50
2023-05-04T04:50:27.760Z,76.60
2023-05-04T04:51:27.808Z,76.60
2023-05-04T04:52:27.720Z,76.39
2023-05-04T04:53:27.734Z,76.29
2023-05-04T04:54:27.709Z,76.39
2023-05-04T04:55:27.727Z,76.60
2023-05-04T04:56:27.677Z,76.60
2023-05-04T04:57:29.875Z,76.39
2023-05-04T04:58:49.471Z,76.50
2023-05-04T04:59:27.665Z,76.39
2023-05-04T05:00:27.643Z,76.39
2023-05-04T05:01:27.708Z,76.15
2023-05-04T05:02:27.684Z,75.84
2023-05-04T05:03:27.639Z,75.53
2023-05-04T05:04:27.649Z,75.63
2023-05-04T05:05:29.118Z,75.22
2023-05-04T05:06:27.591Z,75.22
2023-05-04T05:07:27.586Z,75.01
2023-05-04T05:08:27.587Z,74.77
2023-05-04T05:09:27.592Z,74.67
2023-05-04T05:10:27.525Z,74.88
2023-05-04T05:11:27.590Z,74.46
2023-05-04T05:12:27.541Z,74.57
2023-05-04T05:13:27.558Z,74.57
2023-05-04T05:14:27.505Z,74.88
2023-05-04T05:15:27.509Z,74.63
2023-05-04T05:16:27.543Z,74.22
2023-05-04T05:17:27.508Z,73.91
2023-05-04T05:18:27.460Z,73.71
2023-05-04T05:19:27.499Z,73.74
2023-05-04T05:20:36.971Z,74.60
2023-05-04T05:21:27.453Z,75.22
2023-05-04T05:22:27.416Z,75.63
2023-05-04T05:23:27.423Z,75.43
2023-05-04T05:24:27.407Z,75.29
2023-05-04T05:25:27.406Z,75.09
2023-05-04T05:26:27.393Z,74.57
2023-05-04T05:27:27.398Z,74.33
2023-05-04T05:28:27.383Z,74.36
2023-05-04T05:29:27.370Z,74.26
2023-05-04T05:30:27.513Z,74.36
2023-05-04T05:31:27.383Z,74.57
2023-05-04T05:32:27.366Z,74.67
2023-05-04T05:33:27.308Z,74.98
2023-05-04T05:34:27.295Z,74.53
2023-05-04T05:35:27.292Z,74.12
2023-05-04T05:36:27.269Z,73.68
2023-05-04T05:37:27.293Z,73.57
2023-05-04T05:38:27.240Z,73.26
2023-05-04T05:39:27.257Z,73.47
2023-05-04T05:40:27.226Z,73.26
2023-05-04T05:41:27.236Z,73.16
2023-05-04T05:42:27.228Z,73.26
2023-05-04T05:43:27.223Z,73.81
2023-05-04T05:44:27.171Z,74.12
2023-05-04T05:45:27.192Z,74.12
2023-05-04T05:46:27.221Z,73.68
2023-05-04T05:47:27.227Z,73.16
2023-05-04T05:48:27.144Z,72.96
2023-05-04T05:49:27.188Z,72.61
2023-05-04T05:50:27.314Z,72.41
2023-05-04T05:51:27.121Z,72.06
2023-05-04T05:52:27.129Z,71.75
2023-05-04T05:53:27.104Z,71.96
2023-05-04T05:54:27.076Z,71.31
2023-05-04T05:55:27.092Z,71.00
2023-05-04T05:56:27.051Z,70.38
2023-05-04T05:57:27.094Z,69.94
2023-05-04T05:58:27.037Z,70.14
2023-05-04T05:59:27.048Z,69.73
2023-05-04T06:00:27.011Z,69.94
2023-05-04T06:01:27.025Z,70.04
2023-05-04T06:02:27.069Z,69.90
2023-05-04T06:03:27.208Z,69.63
2023-05-04T06:04:27.010Z,69.84
2023-05-04T06:05:26.995Z,70.01
2023-05-04T06:06:27.008Z,69.60
2023-05-04T06:07:26.968Z,68.95
2023-05-04T06:08:26.962Z,68.02
2023-05-04T06:09:26.961Z,68.16
2023-05-04T06:10:26.915Z,68.77
2023-05-04T06:11:26.928Z,68.67
2023-05-04T06:12:26.885Z,68.43
2023-05-04T06:13:27.221Z,68.33
2023-05-04T06:14:26.861Z,68.13
2023-05-04T06:15:26.898Z,68.02
2023-05-04T06:16:26.911Z,67.92
2023-05-04T06:17:26.896Z,67.92
2023-05-04T06:18:26.826Z,68.13
2023-05-04T06:19:27.187Z,68.33
2023-05-04T06:20:26.806Z,68.64
2023-05-04T06:21:26.831Z,68.33
2023-05-04T06:22:26.771Z,68.33
2023-05-04T06:23:26.790Z,68.02
2023-05-04T06:24:26.767Z,67.82
2023-05-04T06:25:26.776Z,67.68
2023-05-04T06:26:27.014Z,67.48
2023-05-04T06:27:26.973Z,66.86
2023-05-04T06:28:26.740Z,66.42
2023-05-04T06:29:26.743Z,66.01
2023-05-04T06:30:26.688Z,65.67
2023-05-04T06:31:26.739Z,65.16
2023-05-04T06:32:27.278Z,64.85
2023-05-04T06:33:26.680Z,65.26
2023-05-04T06:34:26.655Z,65.67
2023-05-04T06:35:26.682Z,65.67
2023-05-04T06:36:26.680Z,65.47
2023-05-04T06:37:26.647Z,65.12
2023-05-04T06:38:26.653Z,65.03
2023-05-04T06:39:26.663Z,64.51
2023-05-04T06:40:26.595Z,64.00
2023-05-04T06:41:26.606Z,64.07
2023-05-04T06:42:26.582Z,63.87
2023-05-04T06:43:26.576Z,63.15
2023-05-04T06:44:26.600Z,63.35
2023-05-04T06:45:26.630Z,63.87
2023-05-04T06:46:26.524Z,63.76
2023-05-04T06:47:26.597Z,63.46
2023-05-04T06:48:26.547Z,63.66
2023-05-04T06:49:26.524Z,63.76
2023-05-04T06:50:26.568Z,63.76
2023-05-04T06:51:26.467Z,63.97
2023-05-04T06:52:26.933Z,64.56
2023-05-04T06:53:26.451Z,63.64
2023-05-04T06:54:26.459Z,63.60
2023-05-04T06:55:26.468Z,63.29
2023-05-04T06:56:26.462Z,62.88
2023-05-04T06:57:26.407Z,62.48
2023-05-04T06:58:26.432Z,62.04
2023-05-04T06:59:26.384Z,61.66
2023-05-04T07:00:26.405Z,61.43
2023-05-04T07:01:26.440Z,61.25
2023-05-04T07:02:26.420Z,61.35
2023-05-04T07:03:40.900Z,61.45
2023-05-04T07:04:26.388Z,61.43
2023-05-04T07:05:26.332Z,61.43
2023-05-04T07:06:26.358Z,61.52
2023-05-04T07:07:26.304Z,61.32
2023-05-04T07:08:26.328Z,61.63
2023-05-04T07:09:26.313Z,61.86
2023-05-04T07:10:26.329Z,61.86
2023-05-04T07:11:26.266Z,61.93
2023-05-04T07:12:26.289Z,61.83
2023-05-04T07:13:26.264Z,61.83
2023-05-04T07:14:26.247Z,61.50
2023-05-04T07:15:26.214Z,61.19
2023-05-04T07:16:26.326Z,60.99
2023-05-04T07:17:31.351Z,60.75
2023-05-04T07:18:26.250Z,60.85
2023-05-04T07:19:26.188Z,61.26
2023-05-04T07:20:26.492Z,61.13
2023-05-04T07:21:28.820Z,60.11
2023-05-04T07:22:26.233Z,60.31
2023-05-04T07:23:26.163Z,60.21
2023-05-04T07:24:26.189Z,59.60
2023-05-04T07:25:26.167Z,59.37
2023-05-04T07:26:26.178Z,59.37
2023-05-04T07:27:26.140Z,59.27
2023-05-04T07:28:26.137Z,59.16
2023-05-04T07:29:26.064Z,59.06
2023-05-04T07:30:26.127Z,58.93
2023-05-04T07:31:28.106Z,58.93
2023-05-04T07:32:26.142Z,58.93
2023-05-04T07:33:26.051Z,59.14
2023-05-04T07:34:37.838Z,59.31
2023-05-04T07:35:26.112Z,59.11
2023-05-04T07:36:26.038Z,59.72
2023-05-04T07:37:26.042Z,59.59
2023-05-04T07:38:26.059Z,59.69
2023-05-04T07:39:26.179Z,59.69
2023-05-04T07:40:26.016Z,58.78
2023-05-04T07:41:26.090Z,58.16
2023-05-04T07:42:26.002Z,57.65
2023-05-04T07:43:25.966Z,56.84
2023-05-04T07:44:26.105Z,56.12
2023-05-04T07:45:25.954Z,56.53
2023-05-04T07:46:25.943Z,57.12
2023-05-04T07:47:25.904Z,56.60
2023-05-04T07:48:26.542Z,56.40
2023-05-04T07:49:26.016Z,55.97
2023-05-04T07:50:25.909Z,55.87
2023-05-04T07:51:25.928Z,55.15
2023-05-04T07:52:25.882Z,55.46
2023-05-04T07:53:25.810Z,55.97
2023-05-04T07:54:25.916Z,55.97
2023-05-04T07:55:25.808Z,55.99
2023-05-04T07:56:25.808Z,56.10
2023-05-04T07:57:25.799Z,55.76
2023-05-04T07:58:25.800Z,55.79
2023-05-04T07:59:25.792Z,57.01
2023-05-04T08:00:25.785Z,56.60
2023-05-04T08:01:25.739Z,56.63
2023-05-04T08:02:25.894Z,57.01
2023-05-04T08:03:25.867Z,56.81
2023-05-04T08:04:25.748Z,56.40
2023-05-04T08:05:25.701Z,56.68
2023-05-04T08:06:26.150Z,56.27
2023-05-04T08:07:25.708Z,55.97
2023-05-04T08:08:25.989Z,55.84
2023-05-04T08:09:25.684Z,55.43
2023-05-04T08:10:25.696Z,55.33
2023-05-04T08:11:25.624Z,55.94
2023-05-04T08:12:25.643Z,55.74
2023-05-04T08:13:25.602Z,56.24
2023-05-04T08:14:25.615Z,55.94
2023-05-04T08:15:25.619Z,56.35
2023-05-04T08:16:25.668Z,55.94
2023-05-04T08:17:25.579Z,55.74
2023-05-04T08:18:25.567Z,55.74
2023-05-04T08:19:25.560Z,56.96
2023-05-04T08:20:25.646Z,55.84
2023-05-04T08:21:25.534Z,55.63
2023-05-04T08:22:25.535Z,55.22
2023-05-04T08:23:25.495Z,55.20
2023-05-04T08:24:25.538Z,55.00
2023-05-04T08:25:25.508Z,54.90
2023-05-04T08:26:25.502Z,54.69
2023-05-04T08:27:25.474Z,54.77
2023-05-04T08:28:25.482Z,53.85
2023-05-04T08:29:25.442Z,54.16
2023-05-04T08:30:25.453Z,54.08
2023-05-04T08:31:25.449Z,54.28
2023-05-04T08:32:25.505Z,54.28
2023-05-04T08:33:25.429Z,53.96
2023-05-04T08:34:25.425Z,54.39
2023-05-04T08:35:25.396Z,54.05
2023-05-04T08:36:25.386Z,53.65
2023-05-04T08:37:25.352Z,53.52
2023-05-04T08:38:25.453Z,53.52
2023-05-04T08:39:25.359Z,53.42
2023-05-04T08:40:25.351Z,53.50
2023-05-04T08:41:25.310Z,53.39
2023-05-04T08:42:25.359Z,52.96
2023-05-04T08:43:25.314Z,53.47
2023-05-04T08:44:25.334Z,52.96
2023-05-04T08:45:25.792Z,52.94
2023-05-04T08:46:25.324Z,52.56
2023-05-04T08:47:25.780Z,52.89
2023-05-04T08:48:25.291Z,53.11
2023-05-04T08:49:25.250Z,53.22
2023-05-04T08:50:25.294Z,52.98
2023-05-04T08:51:25.959Z,52.66
2023-05-04T08:52:25.285Z,52.45
2023-05-04T08:53:25.180Z,51.72
2023-05-04T08:54:25.329Z,51.39
2023-05-04T08:55:25.180Z,51.79
2023-05-04T08:56:25.209Z,51.46
2023-05-04T08:57:25.134Z,51.26
2023-05-04T08:58:25.142Z,50.73
2023-05-04T08:59:25.148Z,50.51
2023-05-04T09:00:25.171Z,50.51
2023-05-04T09:01:25.218Z,49.39
2023-05-04T09:02:25.223Z,49.49
2023-05-04T09:03:25.223Z,49.19
2023-05-04T09:04:27.209Z,49.39
2023-05-04T09:05:25.055Z,49.39
2023-05-04T09:06:25.098Z,49.16
2023-05-04T09:07:25.112Z,48.66
2023-05-04T09:08:25.078Z,48.55
2023-05-04T09:09:25.021Z,48.48
2023-05-04T09:10:26.898Z,48.55
2023-05-04T09:11:24.996Z,48.55
2023-05-04T09:12:25.046Z,48.55
2023-05-04T09:13:25.013Z,48.76
2023-05-04T09:14:25.027Z,48.94
2023-05-04T09:15:24.951Z,49.24
2023-05-04T09:16:24.997Z,48.63
2023-05-04T09:17:25.001Z,48.23
2023-05-04T09:18:24.953Z,48.46
2023-05-04T09:19:24.932Z,48.76
2023-05-04T09:20:24.905Z,48.35
2023-05-04T09:21:24.888Z,48.33
2023-05-04T09:22:25.462Z,47.60
2023-05-04T09:23:24.915Z,47.80
2023-05-04T09:24:24.904Z,48.11
2023-05-04T09:25:24.883Z,47.09
2023-05-04T09:26:24.947Z,47.42
2023-05-04T09:27:24.917Z,47.95
2023-05-04T09:28:25.772Z,48.25
2023-05-04T09:29:24.805Z,48.03
2023-05-04T09:30:24.816Z,47.60
2023-05-04T09:31:24.827Z,47.60
2023-05-04T09:32:24.813Z,47.27
2023-05-04T09:33:24.778Z,47.27
2023-05-04T09:34:24.798Z,47.90
2023-05-04T09:35:32.483Z,47.39
2023-05-04T09:36:24.751Z,46.97
2023-05-04T09:37:24.738Z,47.05
2023-05-04T09:38:24.734Z,48.03
2023-05-04T09:39:24.705Z,47.33
2023-05-04T09:40:24.725Z,46.91
2023-05-04T09:41:24.696Z,46.80
2023-05-04T09:42:24.767Z,46.50
2023-05-04T09:43:24.662Z,46.48
2023-05-04T09:44:24.950Z,45.77
2023-05-04T09:45:24.632Z,46.07
2023-05-04T09:46:24.661Z,45.97
2023-05-04T09:47:24.718Z,45.25
2023-05-04T09:48:24.619Z,45.04
2023-05-04T09:49:24.596Z,44.84
2023-05-04T09:50:24.604Z,45.54
2023-05-04T09:51:24.566Z,45.12
2023-05-04T09:52:24.584Z,45.12
2023-05-04T09:53:24.527Z,45.12
2023-05-04T09:54:24.552Z,45.12
2023-05-04T09:55:24.625Z,45.22
2023-05-04T09:56:24.597Z,44.92
2023-05-04T09:57:24.497Z,45.32
2023-05-04T09:58:24.506Z,44.82
2023-05-04T09:59:24.466Z,45.00
2023-05-04T10:00:24.559Z,44.71
2023-05-04T10:01:24.482Z,45.37
2023-05-04T10:02:24.592Z,45.77
2023-05-04T10:03:24.473Z,45.45
2023-05-04T10:04:24.495Z,45.14
2023-05-04T10:05:24.418Z,45.14
2023-05-04T10:06:24.412Z,45.16
2023-05-04T10:07:24.426Z,45.29
2023-05-04T10:08:24.420Z,45.69
2023-05-04T10:09:24.375Z,46.37
2023-05-04T10:10:24.383Z,45.77
2023-05-04T10:11:24.474Z,46.45
2023-05-04T10:12:24.409Z,44.62
2023-05-04T10:13:24.338Z,45.32
2023-05-04T10:14:24.354Z,44.21
2023-05-04T10:15:24.335Z,44.21
2023-05-04T10:16:24.426Z,44.01
2023-05-04T10:17:24.365Z,43.91
2023-05-04T10:18:24.288Z,43.91
2023-05-04T10:19:24.260Z,44.09
2023-05-04T10:20:24.283Z,43.69
2023-05-04T10:21:30.541Z,43.48
2023-05-04T10:22:24.257Z,44.90
2023-05-04T10:23:24.260Z,45.00
2023-05-04T10:24:24.233Z,43.79
2023-05-04T10:25:24.195Z,43.89
2023-05-04T10:26:24.273Z,43.79
2023-05-04T10:27:24.203Z,43.66
2023-05-04T10:28:24.194Z,44.17
2023-05-04T10:29:24.249Z,43.77
2023-05-04T10:30:24.188Z,43.89
2023-05-04T10:31:24.194Z,43.69
2023-05-04T10:32:24.181Z,43.48
2023-05-04T10:33:24.267Z,43.38
2023-05-04T10:34:24.190Z,43.89
2023-05-04T10:35:24.186Z,43.18
2023-05-04T10:36:24.178Z,43.28
2023-05-04T10:37:24.109Z,43.38
2023-05-04T10:38:24.180Z,43.26
2023-05-04T10:39:24.067Z,42.76
2023-05-04T10:40:24.162Z,43.26
2023-05-04T10:41:24.032Z,45.98
2023-05-04T10:42:24.105Z,43.89
2023-05-04T10:43:24.446Z,43.59
2023-05-04T10:44:24.019Z,43.80
2023-05-04T10:45:24.003Z,43.99
2023-05-04T10:46:24.014Z,44.49
2023-05-04T10:47:23.962Z,43.66
2023-05-04T10:48:24.332Z,43.87
2023-05-04T10:49:23.981Z,43.37
2023-05-04T10:50:23.984Z,42.94
2023-05-04T10:51:25.283Z,42.33
2023-05-04T10:52:23.934Z,42.32
2023-05-04T10:53:23.918Z,41.81
2023-05-04T10:54:23.966Z,42.11
2023-05-04T10:55:23.876Z,41.91
2023-05-04T10:56:23.877Z,41.41
2023-05-04T10:57:23.853Z,41.61
2023-05-04T10:58:23.897Z,41.20
2023-05-04T10:59:23.868Z,41.89
2023-05-04T11:00:23.851Z,41.99
2023-05-04T11:01:23.936Z,41.57
2023-05-04T11:02:23.967Z,41.45
2023-05-04T11:03:23.901Z,41.03
2023-05-04T11:04:23.795Z,40.92
2023-05-04T11:05:23.791Z,41.03
2023-05-04T11:06:24.341Z,41.13
2023-05-04T11:07:23.804Z,40.64
2023-05-04T11:08:23.756Z,41.05
2023-05-04T11:09:23.822Z,41.09
2023-05-04T11:10:23.721Z,41.29
2023-05-04T11:11:23.744Z,41.37
2023-05-04T11:12:23.763Z,40.86
2023-05-04T11:13:23.852Z,40.66
2023-05-04T11:14:23.671Z,41.17
2023-05-04T11:15:23.685Z,40.84
2023-05-04T11:16:23.692Z,40.95
2023-05-04T11:17:28.082Z,39.92
2023-05-04T11:18:30.051Z,39.10
2023-05-04T11:19:23.660Z,38.90
2023-05-04T11:20:23.598Z,39.62
2023-05-04T11:21:23.641Z,39.62
2023-05-04T11:22:23.750Z,39.42
2023-05-04T11:23:23.608Z,40.16
2023-05-04T11:24:23.560Z,40.66
2023-05-04T11:25:23.588Z,40.14
2023-05-04T11:26:23.582Z,40.73
2023-05-04T11:27:23.575Z,40.22
2023-05-04T11:28:23.580Z,39.50
2023-05-04T11:29:23.555Z,39.62
2023-05-04T11:30:23.508Z,40.33
2023-05-04T11:31:23.568Z,39.92
2023-05-04T11:32:23.537Z,40.12
2023-05-04T11:33:23.513Z,39.32
2023-05-04T11:34:23.484Z,39.72
2023-05-04T11:35:23.468Z,39.82
2023-05-04T11:36:23.438Z,39.84
2023-05-04T11:37:23.488Z,39.42
2023-05-04T11:38:29.943Z,39.42
2023-05-04T11:39:23.419Z,39.62
2023-05-04T11:40:23.382Z,39.40
2023-05-04T11:41:23.440Z,39.38
2023-05-04T11:42:23.368Z,38.56
2023-05-04T11:43:23.394Z,38.96
2023-05-04T11:44:23.385Z,38.96
2023-05-04T11:45:23.370Z,39.42
2023-05-04T11:47:12.931Z,37.92
2023-05-04T11:47:59.005Z,37.72
2023-05-04T11:48:23.328Z,37.72
2023-05-04T11:49:23.336Z,37.72
2023-05-04T11:50:23.284Z,37.40
2023-05-04T11:51:23.321Z,37.40
2023-05-04T11:52:23.272Z,38.42
2023-05-04T11:53:23.274Z,38.44
2023-05-04T11:54:23.287Z,38.42
2023-05-04T11:55:23.259Z,38.31
2023-05-04T11:56:23.258Z,37.68
2023-05-04T11:57:23.239Z,37.77
2023-05-04T11:58:23.209Z,36.46
2023-05-04T11:59:23.219Z,36.44
2023-05-04T12:00:23.180Z,37.15
2023-05-04T12:01:23.222Z,36.26
2023-05-04T12:02:23.193Z,37.27
2023-05-04T12:03:24.544Z,37.08
2023-05-04T12:05:32.863Z,37.57
2023-05-04T12:06:33.902Z,37.25
2023-05-04T12:07:33.805Z,36.35
2023-05-04T12:12:02.426Z,36.57
2023-05-04T12:14:12.856Z,36.58
2023-05-04T12:17:02.131Z,36.82
2023-05-04T12:19:18.593Z,36.60
2023-05-04T12:20:19.599Z,36.50
2023-05-04T12:21:19.669Z,36.80
2023-05-04T12:23:35.956Z,37.02
2023-05-04T12:24:30.044Z,37.22
2023-05-04T12:25:30.093Z,37.22
2023-05-04T12:26:30.029Z,37.50
2023-05-04T12:27:30.074Z,37.60
2023-05-04T12:28:30.031Z,37.38
2023-05-04T12:29:30.037Z,37.68
2023-05-04T12:30:30.040Z,38.09
2023-05-04T12:31:30.034Z,36.96
2023-05-04T12:32:30.021Z,36.85
2023-05-04T12:33:29.987Z,36.23
2023-05-04T12:34:29.948Z,36.73
2023-05-04T12:35:29.956Z,36.83
2023-05-04T12:36:29.920Z,35.93
2023-05-04T12:37:29.967Z,36.73
2023-05-04T12:38:29.919Z,36.33
2023-05-04T12:39:29.921Z,36.05
2023-05-04T12:40:29.967Z,35.94
2023-05-04T12:41:29.894Z,35.86
2023-05-04T12:42:29.872Z,35.75
2023-05-04T12:43:29.876Z,35.85
2023-05-04T12:44:29.868Z,36.44
2023-05-04T12:45:29.865Z,36.13
2023-05-04T12:46:29.960Z,36.93
2023-05-04T12:47:29.847Z,36.53
2023-05-04T12:48:29.807Z,35.93
2023-05-04T12:49:29.847Z,35.64
2023-05-04T12:50:29.791Z,36.36
2023-05-04T12:51:29.789Z,37.10
2023-05-04T12:52:29.805Z,37.44
2023-05-04T12:53:29.818Z,37.42
2023-05-04T12:54:29.742Z,37.12
2023-05-04T12:55:29.754Z,36.80
2023-05-04T12:56:29.747Z,36.58
2023-05-04T12:57:29.768Z,36.87
2023-05-04T12:58:29.698Z,36.50
2023-05-04T12:59:29.734Z,37.12
2023-05-04T13:00:29.683Z,37.42
2023-05-04T13:01:29.777Z,37.62
2023-05-04T13:02:29.744Z,37.70